sensor_id;sensor_type;location;lat;lon;timestamp;P1;durP1;ratioP1;P2;durP2;ratioP2
57395;SDS011;43222;52.912;6.940;2022-08-19T00:01:09;10.82;;;7.50;;
57395;SDS011;43222;52.912;6.940;2022-08-19T00:03:36;11.25;;;8.55;;
57395;SDS011;43222;52.912;6.940;2022-08-19T00:06:02;11.15;;;8.57;;
57395;SDS011;43222;52.912;6.940;2022-08-19T00:08:28;11.65;;;9.27;;
57395;SDS011;43222;52.912;6.940;2022-08-19T00:10:54;11.93;;;8.32;;
57395;SDS011;43222;52.912;6.940;2022-08-19T00:13:20;10.95;;;9.10;;
57395;SDS011;43222;52.912;6.940;2022-08-19T00:15:46;11.20;;;9.13;;
57395;SDS011;43222;52.912;6.940;2022-08-19T00:18:12;11.73;;;9.10;;
57395;SDS011;43222;52.912;6.940;2022-08-19T00:20:38;10.90;;;8.82;;
57395;SDS011;43222;52.912;6.940;2022-08-19T00:23:05;12.38;;;9.52;;
57395;SDS011;43222;52.912;6.940;2022-08-19T00:25:31;10.02;;;8.50;;
57395;SDS011;43222;52.912;6.940;2022-08-19T00:27:58;12.02;;;9.43;;
57395;SDS011;43222;52.912;6.940;2022-08-19T00:30:24;10.57;;;9.48;;
57395;SDS011;43222;52.912;6.940;2022-08-19T00:32:52;11.05;;;9.05;;
57395;SDS011;43222;52.912;6.940;2022-08-19T00:35:21;12.38;;;8.23;;
57395;SDS011;43222;52.912;6.940;2022-08-19T00:37:48;11.07;;;8.70;;
57395;SDS011;43222;52.912;6.940;2022-08-19T00:40:15;10.70;;;9.15;;
57395;SDS011;43222;52.912;6.940;2022-08-19T00:42:43;11.57;;;10.38;;
57395;SDS011;43222;52.912;6.940;2022-08-19T00:45:21;10.93;;;9.57;;
57395;SDS011;43222;52.912;6.940;2022-08-19T00:47:47;10.35;;;8.82;;
57395;SDS011;43222;52.912;6.940;2022-08-19T00:50:14;10.43;;;8.85;;
57395;SDS011;43222;52.912;6.940;2022-08-19T00:52:42;9.68;;;8.57;;
57395;SDS011;43222;52.912;6.940;2022-08-19T00:55:10;15.02;;;9.82;;
57395;SDS011;43222;52.912;6.940;2022-08-19T00:57:39;10.25;;;8.63;;
57395;SDS011;43222;52.912;6.940;2022-08-19T01:00:10;10.63;;;8.70;;
57395;SDS011;43222;52.912;6.940;2022-08-19T01:02:37;11.48;;;7.15;;
57395;SDS011;43222;52.912;6.940;2022-08-19T01:05:04;10.70;;;6.03;;
57395;SDS011;43222;52.912;6.940;2022-08-19T01:07:31;6.50;;;4.80;;
57395;SDS011;43222;52.912;6.940;2022-08-19T01:09:58;6.18;;;4.70;;
57395;SDS011;43222;52.912;6.940;2022-08-19T01:12:25;5.50;;;4.20;;
57395;SDS011;43222;52.912;6.940;2022-08-19T01:14:51;6.95;;;4.53;;
57395;SDS011;43222;52.912;6.940;2022-08-19T01:17:18;7.13;;;5.47;;
57395;SDS011;43222;52.912;6.940;2022-08-19T01:19:45;6.53;;;4.53;;
57395;SDS011;43222;52.912;6.940;2022-08-19T01:22:12;7.38;;;5.03;;
57395;SDS011;43222;52.912;6.940;2022-08-19T01:24:40;6.35;;;4.63;;
57395;SDS011;43222;52.912;6.940;2022-08-19T01:27:06;7.50;;;6.05;;
57395;SDS011;43222;52.912;6.940;2022-08-19T01:29:33;7.78;;;5.90;;
57395;SDS011;43222;52.912;6.940;2022-08-19T01:32:00;8.45;;;5.53;;
57395;SDS011;43222;52.912;6.940;2022-08-19T01:34:26;8.50;;;6.32;;
57395;SDS011;43222;52.912;6.940;2022-08-19T01:36:52;8.63;;;6.18;;
57395;SDS011;43222;52.912;6.940;2022-08-19T01:39:20;8.80;;;7.60;;
57395;SDS011;43222;52.912;6.940;2022-08-19T01:41:46;7.82;;;6.15;;
57395;SDS011;43222;52.912;6.940;2022-08-19T01:44:13;9.68;;;5.70;;
57395;SDS011;43222;52.912;6.940;2022-08-19T01:46:39;8.77;;;4.07;;
57395;SDS011;43222;52.912;6.940;2022-08-19T01:49:05;7.97;;;3.28;;
57395;SDS011;43222;52.912;6.940;2022-08-19T01:51:32;4.70;;;2.88;;
57395;SDS011;43222;52.912;6.940;2022-08-19T01:53:59;5.35;;;3.50;;
57395;SDS011;43222;52.912;6.940;2022-08-19T01:56:25;5.18;;;3.55;;
57395;SDS011;43222;52.912;6.940;2022-08-19T01:58:54;5.45;;;3.58;;
57395;SDS011;43222;52.912;6.940;2022-08-19T02:01:21;6.75;;;4.40;;
57395;SDS011;43222;52.912;6.940;2022-08-19T02:03:47;5.68;;;3.78;;
57395;SDS011;43222;52.912;6.940;2022-08-19T02:06:13;5.55;;;3.60;;
57395;SDS011;43222;52.912;6.940;2022-08-19T02:08:42;5.80;;;4.20;;
57395;SDS011;43222;52.912;6.940;2022-08-19T02:11:17;5.55;;;3.88;;
57395;SDS011;43222;52.912;6.940;2022-08-19T02:13:43;6.82;;;4.20;;
57395;SDS011;43222;52.912;6.940;2022-08-19T02:16:09;6.95;;;4.15;;
57395;SDS011;43222;52.912;6.940;2022-08-19T02:18:35;7.30;;;4.40;;
57395;SDS011;43222;52.912;6.940;2022-08-19T02:21:01;11.50;;;8.23;;
57395;SDS011;43222;52.912;6.940;2022-08-19T02:23:27;12.07;;;9.30;;
57395;SDS011;43222;52.912;6.940;2022-08-19T02:25:53;13.80;;;10.32;;
57395;SDS011;43222;52.912;6.940;2022-08-19T02:28:19;16.15;;;12.48;;
57395;SDS011;43222;52.912;6.940;2022-08-19T02:30:45;18.13;;;12.40;;
57395;SDS011;43222;52.912;6.940;2022-08-19T02:33:11;16.17;;;12.30;;
57395;SDS011;43222;52.912;6.940;2022-08-19T02:35:40;13.40;;;10.73;;
57395;SDS011;43222;52.912;6.940;2022-08-19T02:38:06;15.13;;;11.48;;
57395;SDS011;43222;52.912;6.940;2022-08-19T02:40:51;13.10;;;9.93;;
57395;SDS011;43222;52.912;6.940;2022-08-19T02:43:18;11.85;;;8.85;;
57395;SDS011;43222;52.912;6.940;2022-08-19T02:45:47;9.82;;;7.75;;
57395;SDS011;43222;52.912;6.940;2022-08-19T02:48:18;6.60;;;4.10;;
57395;SDS011;43222;52.912;6.940;2022-08-19T02:50:45;9.10;;;5.18;;
57395;SDS011;43222;52.912;6.940;2022-08-19T02:53:12;10.35;;;5.63;;
57395;SDS011;43222;52.912;6.940;2022-08-19T02:55:45;10.00;;;5.40;;
57395;SDS011;43222;52.912;6.940;2022-08-19T02:58:11;9.50;;;6.13;;
57395;SDS011;43222;52.912;6.940;2022-08-19T03:00:44;9.75;;;5.97;;
57395;SDS011;43222;52.912;6.940;2022-08-19T03:03:12;8.35;;;5.47;;
57395;SDS011;43222;52.912;6.940;2022-08-19T03:05:38;9.18;;;5.72;;
57395;SDS011;43222;52.912;6.940;2022-08-19T03:08:05;11.63;;;7.10;;
57395;SDS011;43222;52.912;6.940;2022-08-19T03:10:32;8.88;;;5.85;;
57395;SDS011;43222;52.912;6.940;2022-08-19T03:12:58;7.80;;;5.00;;
57395;SDS011;43222;52.912;6.940;2022-08-19T03:15:24;13.77;;;5.78;;
57395;SDS011;43222;52.912;6.940;2022-08-19T03:17:51;8.77;;;5.30;;
57395;SDS011;43222;52.912;6.940;2022-08-19T03:20:17;7.88;;;5.85;;
57395;SDS011;43222;52.912;6.940;2022-08-19T03:22:43;5.95;;;4.43;;
57395;SDS011;43222;52.912;6.940;2022-08-19T03:25:09;6.25;;;3.72;;
57395;SDS011;43222;52.912;6.940;2022-08-19T03:27:37;5.22;;;3.05;;
57395;SDS011;43222;52.912;6.940;2022-08-19T03:30:03;5.57;;;2.80;;
57395;SDS011;43222;52.912;6.940;2022-08-19T03:32:29;4.57;;;2.58;;
57395;SDS011;43222;52.912;6.940;2022-08-19T03:34:55;4.85;;;2.72;;
57395;SDS011;43222;52.912;6.940;2022-08-19T03:37:21;7.05;;;4.10;;
57395;SDS011;43222;52.912;6.940;2022-08-19T03:39:47;11.25;;;7.00;;
57395;SDS011;43222;52.912;6.940;2022-08-19T03:42:13;8.65;;;5.25;;
57395;SDS011;43222;52.912;6.940;2022-08-19T03:44:41;8.45;;;5.25;;
57395;SDS011;43222;52.912;6.940;2022-08-19T03:47:09;9.18;;;5.68;;
57395;SDS011;43222;52.912;6.940;2022-08-19T03:49:41;8.27;;;5.53;;
57395;SDS011;43222;52.912;6.940;2022-08-19T03:52:07;7.68;;;5.18;;
57395;SDS011;43222;52.912;6.940;2022-08-19T03:54:33;8.75;;;5.50;;
57395;SDS011;43222;52.912;6.940;2022-08-19T03:57:00;9.32;;;6.57;;
57395;SDS011;43222;52.912;6.940;2022-08-19T03:59:27;8.95;;;6.00;;
57395;SDS011;43222;52.912;6.940;2022-08-19T04:01:54;9.68;;;6.97;;
57395;SDS011;43222;52.912;6.940;2022-08-19T04:04:21;10.82;;;7.85;;
57395;SDS011;43222;52.912;6.940;2022-08-19T04:06:47;9.65;;;6.72;;
57395;SDS011;43222;52.912;6.940;2022-08-19T04:09:13;7.90;;;4.57;;
57395;SDS011;43222;52.912;6.940;2022-08-19T04:11:41;8.90;;;5.50;;
57395;SDS011;43222;52.912;6.940;2022-08-19T04:14:09;7.18;;;4.28;;
57395;SDS011;43222;52.912;6.940;2022-08-19T04:16:35;8.23;;;4.22;;
57395;SDS011;43222;52.912;6.940;2022-08-19T04:19:03;5.45;;;3.40;;
57395;SDS011;43222;52.912;6.940;2022-08-19T04:21:29;7.22;;;3.90;;
57395;SDS011;43222;52.912;6.940;2022-08-19T04:23:55;6.32;;;4.00;;
57395;SDS011;43222;52.912;6.940;2022-08-19T04:26:26;7.18;;;3.80;;
57395;SDS011;43222;52.912;6.940;2022-08-19T04:28:53;6.10;;;3.88;;
57395;SDS011;43222;52.912;6.940;2022-08-19T04:31:20;8.68;;;4.50;;
57395;SDS011;43222;52.912;6.940;2022-08-19T04:33:46;9.75;;;5.60;;
57395;SDS011;43222;52.912;6.940;2022-08-19T04:36:16;9.55;;;5.78;;
57395;SDS011;43222;52.912;6.940;2022-08-19T04:38:45;11.30;;;6.93;;
57395;SDS011;43222;52.912;6.940;2022-08-19T04:41:11;10.68;;;6.90;;
57395;SDS011;43222;52.912;6.940;2022-08-19T04:43:56;13.60;;;7.35;;
57395;SDS011;43222;52.912;6.940;2022-08-19T04:46:22;8.35;;;6.05;;
57395;SDS011;43222;52.912;6.940;2022-08-19T04:48:48;9.20;;;7.47;;
57395;SDS011;43222;52.912;6.940;2022-08-19T04:51:14;11.48;;;7.70;;
57395;SDS011;43222;52.912;6.940;2022-08-19T04:53:41;10.13;;;7.15;;
57395;SDS011;43222;52.912;6.940;2022-08-19T04:56:09;10.77;;;8.15;;
57395;SDS011;43222;52.912;6.940;2022-08-19T04:58:36;11.75;;;9.05;;
57395;SDS011;43222;52.912;6.940;2022-08-19T05:01:03;11.27;;;8.35;;
57395;SDS011;43222;52.912;6.940;2022-08-19T05:03:29;10.40;;;8.05;;
57395;SDS011;43222;52.912;6.940;2022-08-19T05:06:03;11.93;;;8.63;;
57395;SDS011;43222;52.912;6.940;2022-08-19T05:08:32;11.43;;;9.40;;
57395;SDS011;43222;52.912;6.940;2022-08-19T05:10:59;14.27;;;9.57;;
57395;SDS011;43222;52.912;6.940;2022-08-19T05:13:25;11.20;;;9.23;;
57395;SDS011;43222;52.912;6.940;2022-08-19T05:15:57;12.75;;;9.02;;
57395;SDS011;43222;52.912;6.940;2022-08-19T05:18:24;12.68;;;9.73;;
57395;SDS011;43222;52.912;6.940;2022-08-19T05:21:13;11.00;;;8.15;;
57395;SDS011;43222;52.912;6.940;2022-08-19T05:23:57;11.27;;;8.02;;
57395;SDS011;43222;52.912;6.940;2022-08-19T05:26:24;9.02;;;7.60;;
57395;SDS011;43222;52.912;6.940;2022-08-19T05:28:54;11.35;;;7.28;;
57395;SDS011;43222;52.912;6.940;2022-08-19T05:31:20;11.13;;;8.55;;
57395;SDS011;43222;52.912;6.940;2022-08-19T05:33:46;9.98;;;7.53;;
57395;SDS011;43222;52.912;6.940;2022-08-19T05:36:12;11.20;;;7.75;;
57395;SDS011;43222;52.912;6.940;2022-08-19T05:38:39;9.13;;;7.10;;
57395;SDS011;43222;52.912;6.940;2022-08-19T05:41:12;11.90;;;8.90;;
57395;SDS011;43222;52.912;6.940;2022-08-19T05:43:38;11.13;;;7.93;;
57395;SDS011;43222;52.912;6.940;2022-08-19T05:46:05;9.80;;;8.05;;
57395;SDS011;43222;52.912;6.940;2022-08-19T05:48:34;9.43;;;7.13;;
57395;SDS011;43222;52.912;6.940;2022-08-19T05:51:05;10.48;;;7.10;;
57395;SDS011;43222;52.912;6.940;2022-08-19T05:53:31;13.07;;;9.30;;
57395;SDS011;43222;52.912;6.940;2022-08-19T05:56:02;10.70;;;8.60;;
57395;SDS011;43222;52.912;6.940;2022-08-19T05:58:28;12.63;;;11.32;;
57395;SDS011;43222;52.912;6.940;2022-08-19T06:00:55;13.60;;;12.23;;
57395;SDS011;43222;52.912;6.940;2022-08-19T06:03:21;12.63;;;11.00;;
57395;SDS011;43222;52.912;6.940;2022-08-19T06:05:47;12.05;;;10.85;;
57395;SDS011;43222;52.912;6.940;2022-08-19T06:08:13;11.90;;;10.60;;
57395;SDS011;43222;52.912;6.940;2022-08-19T06:10:39;12.35;;;11.05;;
57395;SDS011;43222;52.912;6.940;2022-08-19T06:13:05;12.35;;;11.05;;
57395;SDS011;43222;52.912;6.940;2022-08-19T06:15:31;12.52;;;10.93;;
57395;SDS011;43222;52.912;6.940;2022-08-19T06:17:57;11.73;;;10.52;;
57395;SDS011;43222;52.912;6.940;2022-08-19T06:20:23;12.75;;;11.40;;
57395;SDS011;43222;52.912;6.940;2022-08-19T06:22:49;12.90;;;11.45;;
57395;SDS011;43222;52.912;6.940;2022-08-19T06:25:16;12.68;;;11.38;;
57395;SDS011;43222;52.912;6.940;2022-08-19T06:27:43;11.70;;;10.48;;
57395;SDS011;43222;52.912;6.940;2022-08-19T06:30:09;12.63;;;11.35;;
57395;SDS011;43222;52.912;6.940;2022-08-19T06:32:36;13.90;;;11.82;;
57395;SDS011;43222;52.912;6.940;2022-08-19T06:35:02;14.50;;;11.50;;
57395;SDS011;43222;52.912;6.940;2022-08-19T06:37:29;12.45;;;11.13;;
57395;SDS011;43222;52.912;6.940;2022-08-19T06:39:55;13.10;;;11.80;;
57395;SDS011;43222;52.912;6.940;2022-08-19T06:42:21;10.98;;;9.45;;
57395;SDS011;43222;52.912;6.940;2022-08-19T06:44:48;12.43;;;10.90;;
57395;SDS011;43222;52.912;6.940;2022-08-19T06:47:15;11.10;;;10.00;;
57395;SDS011;43222;52.912;6.940;2022-08-19T06:49:42;12.75;;;10.30;;
57395;SDS011;43222;52.912;6.940;2022-08-19T06:52:08;12.13;;;10.50;;
57395;SDS011;43222;52.912;6.940;2022-08-19T06:54:38;11.55;;;9.13;;
57395;SDS011;43222;52.912;6.940;2022-08-19T06:57:05;11.57;;;10.38;;
57395;SDS011;43222;52.912;6.940;2022-08-19T06:59:32;12.57;;;10.15;;
57395;SDS011;43222;52.912;6.940;2022-08-19T07:02:00;11.95;;;10.07;;
57395;SDS011;43222;52.912;6.940;2022-08-19T07:04:27;10.95;;;9.27;;
57395;SDS011;43222;52.912;6.940;2022-08-19T07:07:04;10.07;;;8.02;;
57395;SDS011;43222;52.912;6.940;2022-08-19T07:09:32;11.30;;;9.07;;
57395;SDS011;43222;52.912;6.940;2022-08-19T07:11:58;9.88;;;7.72;;
57395;SDS011;43222;52.912;6.940;2022-08-19T07:14:26;10.68;;;7.97;;
57395;SDS011;43222;52.912;6.940;2022-08-19T07:16:54;9.68;;;7.35;;
57395;SDS011;43222;52.912;6.940;2022-08-19T07:19:20;10.60;;;7.57;;
57395;SDS011;43222;52.912;6.940;2022-08-19T07:21:47;10.25;;;7.75;;
57395;SDS011;43222;52.912;6.940;2022-08-19T07:24:14;9.23;;;6.82;;
57395;SDS011;43222;52.912;6.940;2022-08-19T07:26:42;9.55;;;7.15;;
57395;SDS011;43222;52.912;6.940;2022-08-19T07:29:08;10.32;;;7.35;;
57395;SDS011;43222;52.912;6.940;2022-08-19T07:31:34;8.80;;;6.65;;
57395;SDS011;43222;52.912;6.940;2022-08-19T07:34:02;9.57;;;7.18;;
57395;SDS011;43222;52.912;6.940;2022-08-19T07:36:31;11.87;;;7.63;;
57395;SDS011;43222;52.912;6.940;2022-08-19T07:38:58;9.70;;;7.35;;
57395;SDS011;43222;52.912;6.940;2022-08-19T07:41:25;9.77;;;6.55;;
57395;SDS011;43222;52.912;6.940;2022-08-19T07:43:53;10.50;;;6.85;;
57395;SDS011;43222;52.912;6.940;2022-08-19T07:46:19;10.55;;;7.10;;
57395;SDS011;43222;52.912;6.940;2022-08-19T07:48:45;8.77;;;7.30;;
57395;SDS011;43222;52.912;6.940;2022-08-19T07:51:12;10.30;;;8.30;;
57395;SDS011;43222;52.912;6.940;2022-08-19T07:53:39;10.95;;;7.75;;
57395;SDS011;43222;52.912;6.940;2022-08-19T07:56:05;10.60;;;7.55;;
57395;SDS011;43222;52.912;6.940;2022-08-19T07:58:32;10.02;;;8.30;;
57395;SDS011;43222;52.912;6.940;2022-08-19T08:00:59;9.88;;;7.85;;
57395;SDS011;43222;52.912;6.940;2022-08-19T08:03:25;11.23;;;8.45;;
57395;SDS011;43222;52.912;6.940;2022-08-19T08:06:10;10.23;;;7.70;;
57395;SDS011;43222;52.912;6.940;2022-08-19T08:08:55;10.45;;;7.45;;
57395;SDS011;43222;52.912;6.940;2022-08-19T08:11:41;9.95;;;8.15;;
57395;SDS011;43222;52.912;6.940;2022-08-19T08:14:07;10.00;;;7.80;;
57395;SDS011;43222;52.912;6.940;2022-08-19T08:16:35;9.52;;;7.80;;
57395;SDS011;43222;52.912;6.940;2022-08-19T08:19:03;11.02;;;8.50;;
57395;SDS011;43222;52.912;6.940;2022-08-19T08:21:30;11.25;;;7.72;;
57395;SDS011;43222;52.912;6.940;2022-08-19T08:23:56;11.63;;;9.07;;
57395;SDS011;43222;52.912;6.940;2022-08-19T08:26:22;9.60;;;8.60;;
57395;SDS011;43222;52.912;6.940;2022-08-19T08:28:48;11.45;;;8.65;;
57395;SDS011;43222;52.912;6.940;2022-08-19T08:31:14;12.07;;;10.55;;
57395;SDS011;43222;52.912;6.940;2022-08-19T08:33:40;11.43;;;10.23;;
57395;SDS011;43222;52.912;6.940;2022-08-19T08:36:07;12.45;;;10.75;;
57395;SDS011;43222;52.912;6.940;2022-08-19T08:38:34;10.80;;;9.70;;
57395;SDS011;43222;52.912;6.940;2022-08-19T08:41:02;12.18;;;10.73;;
57395;SDS011;43222;52.912;6.940;2022-08-19T08:43:38;12.85;;;10.90;;
57395;SDS011;43222;52.912;6.940;2022-08-19T08:51:38;12.85;;;9.65;;
57395;SDS011;43222;52.912;6.940;2022-08-19T08:54:07;12.50;;;9.48;;
57395;SDS011;43222;52.912;6.940;2022-08-19T08:56:33;10.38;;;9.10;;
57395;SDS011;43222;52.912;6.940;2022-08-19T08:59:02;10.63;;;8.77;;
57395;SDS011;43222;52.912;6.940;2022-08-19T09:01:32;12.45;;;9.30;;
57395;SDS011;43222;52.912;6.940;2022-08-19T09:03:58;12.07;;;9.65;;
57395;SDS011;43222;52.912;6.940;2022-08-19T09:11:25;10.32;;;8.30;;
57395;SDS011;43222;52.912;6.940;2022-08-19T09:14:03;12.50;;;9.23;;
57395;SDS011;43222;52.912;6.940;2022-08-19T09:16:31;11.20;;;8.32;;
57395;SDS011;43222;52.912;6.940;2022-08-19T09:19:03;10.35;;;7.38;;
57395;SDS011;43222;52.912;6.940;2022-08-19T09:21:29;9.98;;;7.25;;
57395;SDS011;43222;52.912;6.940;2022-08-19T09:23:55;9.80;;;7.68;;
57395;SDS011;43222;52.912;6.940;2022-08-19T09:26:23;10.05;;;8.43;;
57395;SDS011;43222;52.912;6.940;2022-08-19T09:28:50;9.68;;;6.57;;
57395;SDS011;43222;52.912;6.940;2022-08-19T09:31:19;9.95;;;8.02;;
57395;SDS011;43222;52.912;6.940;2022-08-19T09:33:45;7.45;;;6.15;;
57395;SDS011;43222;52.912;6.940;2022-08-19T09:36:12;9.85;;;7.07;;
57395;SDS011;43222;52.912;6.940;2022-08-19T09:38:39;10.02;;;6.82;;
57395;SDS011;43222;52.912;6.940;2022-08-19T09:43:37;8.93;;;6.55;;
57395;SDS011;43222;52.912;6.940;2022-08-19T09:46:03;7.25;;;4.45;;
57395;SDS011;43222;52.912;6.940;2022-08-19T09:51:03;8.75;;;7.05;;
57395;SDS011;43222;52.912;6.940;2022-08-19T09:53:30;7.65;;;5.20;;
57395;SDS011;43222;52.912;6.940;2022-08-19T09:55:56;9.52;;;4.95;;
57395;SDS011;43222;52.912;6.940;2022-08-19T09:58:22;9.60;;;6.90;;
57395;SDS011;43222;52.912;6.940;2022-08-19T10:00:52;9.15;;;5.70;;
57395;SDS011;43222;52.912;6.940;2022-08-19T10:03:19;7.68;;;5.95;;
57395;SDS011;43222;52.912;6.940;2022-08-19T10:05:45;8.60;;;5.53;;
57395;SDS011;43222;52.912;6.940;2022-08-19T10:08:18;8.20;;;5.40;;
57395;SDS011;43222;52.912;6.940;2022-08-19T10:10:44;9.25;;;7.13;;
57395;SDS011;43222;52.912;6.940;2022-08-19T10:13:11;9.38;;;7.07;;
57395;SDS011;43222;52.912;6.940;2022-08-19T10:15:37;11.63;;;6.05;;
57395;SDS011;43222;52.912;6.940;2022-08-19T10:18:06;7.90;;;5.72;;
57395;SDS011;43222;52.912;6.940;2022-08-19T10:20:32;6.57;;;4.40;;
57395;SDS011;43222;52.912;6.940;2022-08-19T10:23:00;8.40;;;5.55;;
57395;SDS011;43222;52.912;6.940;2022-08-19T10:25:27;7.43;;;4.97;;
57395;SDS011;43222;52.912;6.940;2022-08-19T10:27:53;8.60;;;6.10;;
57395;SDS011;43222;52.912;6.940;2022-08-19T10:30:20;8.27;;;5.63;;
57395;SDS011;43222;52.912;6.940;2022-08-19T10:32:46;10.35;;;6.10;;
57395;SDS011;43222;52.912;6.940;2022-08-19T10:35:13;7.82;;;5.55;;
57395;SDS011;43222;52.912;6.940;2022-08-19T10:37:39;8.38;;;6.15;;
57395;SDS011;43222;52.912;6.940;2022-08-19T10:40:06;7.53;;;5.82;;
57395;SDS011;43222;52.912;6.940;2022-08-19T10:42:32;9.35;;;5.22;;
57395;SDS011;43222;52.912;6.940;2022-08-19T10:44:58;6.55;;;4.80;;
57395;SDS011;43222;52.912;6.940;2022-08-19T10:47:24;7.22;;;4.78;;
57395;SDS011;43222;52.912;6.940;2022-08-19T10:49:51;7.28;;;5.57;;
57395;SDS011;43222;52.912;6.940;2022-08-19T10:52:48;6.85;;;5.07;;
57395;SDS011;43222;52.912;6.940;2022-08-19T10:55:14;8.27;;;5.30;;
57395;SDS011;43222;52.912;6.940;2022-08-19T10:57:58;7.53;;;4.57;;
57395;SDS011;43222;52.912;6.940;2022-08-19T11:00:25;8.00;;;5.32;;
57395;SDS011;43222;52.912;6.940;2022-08-19T11:02:52;9.15;;;6.07;;
57395;SDS011;43222;52.912;6.940;2022-08-19T11:05:18;8.00;;;5.30;;
57395;SDS011;43222;52.912;6.940;2022-08-19T11:07:44;8.25;;;5.70;;
57395;SDS011;43222;52.912;6.940;2022-08-19T11:10:12;7.90;;;5.38;;
57395;SDS011;43222;52.912;6.940;2022-08-19T11:12:39;8.63;;;5.63;;
57395;SDS011;43222;52.912;6.940;2022-08-19T11:15:06;8.73;;;6.05;;
57395;SDS011;43222;52.912;6.940;2022-08-19T11:17:33;7.22;;;5.80;;
57395;SDS011;43222;52.912;6.940;2022-08-19T11:20:01;7.32;;;6.13;;
57395;SDS011;43222;52.912;6.940;2022-08-19T11:22:29;8.25;;;6.38;;
57395;SDS011;43222;52.912;6.940;2022-08-19T11:24:55;8.02;;;6.43;;
57395;SDS011;43222;52.912;6.940;2022-08-19T11:27:21;9.63;;;7.53;;
57395;SDS011;43222;52.912;6.940;2022-08-19T11:29:47;9.48;;;6.57;;
57395;SDS011;43222;52.912;6.940;2022-08-19T11:32:13;10.13;;;6.15;;
57395;SDS011;43222;52.912;6.940;2022-08-19T11:34:40;9.88;;;7.47;;
57395;SDS011;43222;52.912;6.940;2022-08-19T11:37:06;8.73;;;6.13;;
57395;SDS011;43222;52.912;6.940;2022-08-19T11:39:34;7.43;;;5.70;;
57395;SDS011;43222;52.912;6.940;2022-08-19T11:42:02;7.32;;;5.50;;
57395;SDS011;43222;52.912;6.940;2022-08-19T11:44:48;9.27;;;6.50;;
57395;SDS011;43222;52.912;6.940;2022-08-19T11:47:14;8.32;;;5.82;;
57395;SDS011;43222;52.912;6.940;2022-08-19T11:49:40;9.80;;;6.43;;
57395;SDS011;43222;52.912;6.940;2022-08-19T11:52:07;10.32;;;6.50;;
57395;SDS011;43222;52.912;6.940;2022-08-19T11:54:34;8.20;;;6.13;;
57395;SDS011;43222;52.912;6.940;2022-08-19T11:57:01;9.32;;;5.50;;
57395;SDS011;43222;52.912;6.940;2022-08-19T11:59:28;7.80;;;6.00;;
57395;SDS011;43222;52.912;6.940;2022-08-19T12:01:54;7.85;;;5.95;;
57395;SDS011;43222;52.912;6.940;2022-08-19T12:04:20;7.82;;;5.57;;
57395;SDS011;43222;52.912;6.940;2022-08-19T12:06:47;8.50;;;5.50;;
57395;SDS011;43222;52.912;6.940;2022-08-19T12:11:39;8.23;;;6.43;;
57395;SDS011;43222;52.912;6.940;2022-08-19T12:14:05;10.00;;;6.00;;
57395;SDS011;43222;52.912;6.940;2022-08-19T12:16:32;8.73;;;6.18;;
57395;SDS011;43222;52.912;6.940;2022-08-19T12:18:58;6.68;;;5.28;;
57395;SDS011;43222;52.912;6.940;2022-08-19T12:21:28;8.23;;;5.57;;
57395;SDS011;43222;52.912;6.940;2022-08-19T12:23:55;7.35;;;5.05;;
57395;SDS011;43222;52.912;6.940;2022-08-19T12:26:22;7.18;;;5.20;;
57395;SDS011;43222;52.912;6.940;2022-08-19T12:28:48;8.00;;;5.15;;
57395;SDS011;43222;52.912;6.940;2022-08-19T12:31:15;6.78;;;5.20;;
57395;SDS011;43222;52.912;6.940;2022-08-19T12:33:41;8.55;;;6.30;;
57395;SDS011;43222;52.912;6.940;2022-08-19T12:36:09;7.10;;;5.40;;
57395;SDS011;43222;52.912;6.940;2022-08-19T12:38:35;7.72;;;5.53;;
57395;SDS011;43222;52.912;6.940;2022-08-19T12:41:02;6.95;;;5.28;;
57395;SDS011;43222;52.912;6.940;2022-08-19T12:43:31;5.90;;;4.85;;
57395;SDS011;43222;52.912;6.940;2022-08-19T12:45:57;7.55;;;5.55;;
57395;SDS011;43222;52.912;6.940;2022-08-19T12:48:23;7.47;;;5.85;;
57395;SDS011;43222;52.912;6.940;2022-08-19T12:50:49;9.00;;;5.70;;
57395;SDS011;43222;52.912;6.940;2022-08-19T12:53:15;9.48;;;5.38;;
57395;SDS011;43222;52.912;6.940;2022-08-19T12:55:41;8.38;;;5.80;;
57395;SDS011;43222;52.912;6.940;2022-08-19T12:58:08;7.90;;;6.07;;
57395;SDS011;43222;52.912;6.940;2022-08-19T13:00:34;9.48;;;6.53;;
57395;SDS011;43222;52.912;6.940;2022-08-19T13:03:00;8.00;;;6.07;;
57395;SDS011;43222;52.912;6.940;2022-08-19T13:05:28;8.15;;;5.40;;
57395;SDS011;43222;52.912;6.940;2022-08-19T13:07:55;7.60;;;5.38;;
57395;SDS011;43222;52.912;6.940;2022-08-19T13:10:22;9.95;;;5.55;;
57395;SDS011;43222;52.912;6.940;2022-08-19T13:12:50;7.75;;;5.75;;
57395;SDS011;43222;52.912;6.940;2022-08-19T13:15:20;7.93;;;5.28;;
57395;SDS011;43222;52.912;6.940;2022-08-19T13:17:47;9.60;;;6.05;;
57395;SDS011;43222;52.912;6.940;2022-08-19T13:20:17;9.23;;;7.03;;
57395;SDS011;43222;52.912;6.940;2022-08-19T13:22:44;9.27;;;6.72;;
57395;SDS011;43222;52.912;6.940;2022-08-19T13:25:10;11.60;;;7.13;;
57395;SDS011;43222;52.912;6.940;2022-08-19T13:27:36;8.40;;;6.60;;
57395;SDS011;43222;52.912;6.940;2022-08-19T13:30:03;8.10;;;6.45;;
57395;SDS011;43222;52.912;6.940;2022-08-19T13:32:48;7.50;;;6.20;;
57395;SDS011;43222;52.912;6.940;2022-08-19T13:35:33;7.85;;;5.47;;
57395;SDS011;43222;52.912;6.940;2022-08-19T13:37:59;6.88;;;4.93;;
57395;SDS011;43222;52.912;6.940;2022-08-19T13:40:30;6.53;;;4.70;;
57395;SDS011;43222;52.912;6.940;2022-08-19T13:42:59;7.55;;;4.97;;
57395;SDS011;43222;52.912;6.940;2022-08-19T13:45:27;6.45;;;4.63;;
57395;SDS011;43222;52.912;6.940;2022-08-19T13:47:54;7.82;;;4.20;;
57395;SDS011;43222;52.912;6.940;2022-08-19T13:50:22;6.00;;;4.25;;
57395;SDS011;43222;52.912;6.940;2022-08-19T13:52:50;6.60;;;4.13;;
57395;SDS011;43222;52.912;6.940;2022-08-19T13:55:16;7.30;;;3.65;;
57395;SDS011;43222;52.912;6.940;2022-08-19T13:57:42;5.97;;;3.80;;
57395;SDS011;43222;52.912;6.940;2022-08-19T14:00:10;5.97;;;3.22;;
57395;SDS011;43222;52.912;6.940;2022-08-19T14:02:37;6.95;;;3.65;;
57395;SDS011;43222;52.912;6.940;2022-08-19T14:05:07;6.82;;;3.72;;
57395;SDS011;43222;52.912;6.940;2022-08-19T14:07:34;9.70;;;3.80;;
57395;SDS011;43222;52.912;6.940;2022-08-19T14:10:01;6.72;;;3.47;;
57395;SDS011;43222;52.912;6.940;2022-08-19T14:12:27;6.05;;;3.50;;
57395;SDS011;43222;52.912;6.940;2022-08-19T14:14:53;5.47;;;3.53;;
57395;SDS011;43222;52.912;6.940;2022-08-19T14:17:19;7.47;;;3.17;;
57395;SDS011;43222;52.912;6.940;2022-08-19T14:19:46;4.93;;;2.80;;
57395;SDS011;43222;52.912;6.940;2022-08-19T14:22:12;5.93;;;3.38;;
57395;SDS011;43222;52.912;6.940;2022-08-19T14:24:38;6.18;;;3.45;;
57395;SDS011;43222;52.912;6.940;2022-08-19T14:27:05;6.25;;;3.50;;
57395;SDS011;43222;52.912;6.940;2022-08-19T14:29:31;7.05;;;3.55;;
57395;SDS011;43222;52.912;6.940;2022-08-19T14:31:57;6.78;;;3.40;;
57395;SDS011;43222;52.912;6.940;2022-08-19T14:34:24;4.85;;;3.20;;
57395;SDS011;43222;52.912;6.940;2022-08-19T14:36:50;6.82;;;3.63;;
57395;SDS011;43222;52.912;6.940;2022-08-19T14:39:16;6.43;;;4.53;;
57395;SDS011;43222;52.912;6.940;2022-08-19T14:41:43;7.18;;;4.50;;
57395;SDS011;43222;52.912;6.940;2022-08-19T14:44:10;7.72;;;4.57;;
57395;SDS011;43222;52.912;6.940;2022-08-19T14:46:38;8.45;;;4.97;;
57395;SDS011;43222;52.912;6.940;2022-08-19T14:49:05;7.25;;;4.65;;
57395;SDS011;43222;52.912;6.940;2022-08-19T14:51:32;6.60;;;4.80;;
57395;SDS011;43222;52.912;6.940;2022-08-19T14:53:58;9.77;;;5.53;;
57395;SDS011;43222;52.912;6.940;2022-08-19T14:56:26;8.02;;;5.18;;
57395;SDS011;43222;52.912;6.940;2022-08-19T14:58:52;11.77;;;7.65;;
57395;SDS011;43222;52.912;6.940;2022-08-19T15:01:19;19.88;;;12.23;;